createdAt,value
2023-06-16T00:00:00.529Z,55.67
2023-06-16T00:02:28.876Z,55.71
2023-06-16T00:04:57.734Z,56.07
2023-06-16T00:07:25.266Z,56.11
2023-06-16T00:09:52.887Z,55.80
2023-06-16T00:12:20.272Z,55.54
2023-06-16T00:14:47.663Z,55.64
2023-06-16T00:17:17.411Z,55.75
2023-06-16T00:19:44.849Z,55.79
2023-06-16T00:22:12.300Z,56.00
2023-06-16T00:24:39.699Z,55.30
2023-06-16T00:27:07.203Z,55.27
2023-06-16T00:29:34.597Z,55.34
2023-06-16T00:32:01.964Z,54.92
2023-06-16T00:34:31.488Z,54.92
2023-06-16T00:37:00.207Z,55.03
2023-06-16T00:39:27.673Z,54.70
2023-06-16T00:41:54.983Z,54.92
2023-06-16T00:44:22.709Z,54.90
2023-06-16T00:46:50.369Z,54.91
2023-06-16T00:49:18.263Z,54.74
2023-06-16T00:51:50.121Z,54.96
2023-06-16T00:54:18.137Z,54.74
2023-06-16T00:56:46.331Z,54.80
2023-06-16T00:59:13.728Z,54.97
2023-06-16T01:01:41.199Z,55.01
2023-06-16T01:04:08.560Z,55.06
2023-06-16T01:06:52.041Z,55.25
2023-06-16T01:09:24.436Z,54.68
2023-06-16T01:12:01.636Z,54.91
2023-06-16T01:14:40.993Z,54.89
2023-06-16T01:17:10.582Z,54.80
2023-06-16T01:19:47.039Z,54.69
2023-06-16T01:22:32.097Z,54.60
2023-06-16T01:25:04.758Z,54.64
2023-06-16T01:27:33.830Z,54.29
2023-06-16T01:30:03.545Z,54.34
2023-06-16T01:32:35.144Z,54.41
2023-06-16T01:35:02.982Z,54.41
2023-06-16T01:37:31.817Z,54.47
2023-06-16T01:40:00.162Z,54.35
2023-06-16T01:42:28.935Z,53.92
2023-06-16T01:44:57.486Z,54.13
2023-06-16T01:47:25.896Z,53.96
2023-06-16T01:49:54.652Z,53.73
2023-06-16T01:52:24.147Z,53.62
2023-06-16T01:54:51.474Z,53.74
2023-06-16T01:57:18.923Z,53.72
2023-06-16T01:59:52.597Z,53.74
2023-06-16T02:02:22.905Z,53.53
2023-06-16T02:04:53.935Z,53.39
2023-06-16T02:07:26.376Z,53.35
2023-06-16T02:09:54.719Z,53.48
2023-06-16T02:12:22.533Z,53.25
2023-06-16T02:14:52.691Z,53.25
2023-06-16T02:17:20.334Z,53.27
2023-06-16T02:19:55.514Z,52.93
2023-06-16T02:22:23.309Z,52.99
2023-06-16T02:24:50.801Z,53.01
2023-06-16T02:27:20.430Z,53.02
2023-06-16T02:29:48.510Z,53.32
2023-06-16T02:32:17.574Z,53.51
2023-06-16T02:34:47.974Z,53.50
2023-06-16T02:37:15.937Z,53.30
2023-06-16T02:39:43.265Z,53.42
2023-06-16T02:42:13.727Z,53.94
2023-06-16T02:44:41.413Z,53.91
2023-06-16T02:47:09.145Z,54.05
2023-06-16T02:49:44.057Z,53.89
2023-06-16T02:52:12.761Z,54.01
2023-06-16T02:54:41.867Z,54.32
2023-06-16T02:57:12.949Z,54.32
2023-06-16T02:59:48.617Z,54.38
2023-06-16T03:02:17.947Z,53.99
2023-06-16T03:04:52.909Z,54.12
2023-06-16T03:07:23.698Z,53.87
2023-06-16T03:09:51.151Z,53.62
2023-06-16T03:12:20.998Z,53.86
2023-06-16T03:14:55.239Z,53.79
2023-06-16T03:17:22.907Z,53.77
2023-06-16T03:19:52.693Z,53.83
2023-06-16T03:22:37.836Z,53.77
2023-06-16T03:25:06.309Z,53.74
2023-06-16T03:27:41.765Z,53.48
2023-06-16T03:30:10.958Z,53.50
2023-06-16T03:33:04.697Z,53.42
2023-06-16T03:35:36.506Z,53.36
2023-06-16T03:38:06.751Z,53.44
2023-06-16T03:40:38.823Z,53.32
2023-06-16T03:43:06.383Z,53.22
2023-06-16T03:45:33.999Z,53.33
2023-06-16T03:48:01.884Z,53.23
2023-06-16T03:50:33.560Z,53.08
2023-06-16T03:53:15.631Z,53.21
2023-06-16T03:55:45.275Z,52.83
2023-06-16T03:58:16.600Z,52.87
2023-06-16T04:00:44.768Z,52.81
2023-06-16T04:03:17.052Z,52.51
2023-06-16T04:05:45.128Z,52.89
2023-06-16T04:08:14.652Z,53.25
2023-06-16T04:10:42.869Z,53.26
2023-06-16T04:13:10.263Z,53.04
2023-06-16T04:15:41.449Z,53.20
2023-06-16T04:18:09.538Z,52.73
2023-06-16T04:20:40.138Z,52.58
2023-06-16T04:23:11.032Z,52.29
2023-06-16T04:25:41.643Z,51.61
2023-06-16T04:28:15.372Z,50.77
2023-06-16T04:30:47.422Z,50.21
2023-06-16T04:33:15.623Z,49.99
2023-06-16T04:35:43.279Z,48.82
2023-06-16T04:38:11.760Z,48.51
2023-06-16T04:40:41.222Z,47.82
2023-06-16T04:43:09.115Z,47.32
2023-06-16T04:45:37.002Z,47.56
2023-06-16T04:48:04.625Z,47.24
2023-06-16T04:50:32.235Z,46.81
2023-06-16T04:52:59.959Z,46.31
2023-06-16T04:55:27.462Z,45.91
2023-06-16T04:57:56.785Z,45.61
2023-06-16T05:00:24.502Z,45.03
2023-06-16T05:02:52.561Z,44.65
2023-06-16T05:05:21.499Z,44.08
2023-06-16T05:07:49.289Z,43.70
2023-06-16T05:10:17.324Z,43.40
2023-06-16T05:12:45.232Z,42.63
2023-06-16T05:15:14.112Z,42.31
2023-06-16T05:17:41.619Z,42.05
2023-06-16T05:20:10.822Z,41.72
2023-06-16T05:22:41.402Z,41.40
2023-06-16T05:25:09.555Z,41.15
2023-06-16T05:27:37.063Z,40.56
2023-06-16T05:30:04.892Z,40.54
2023-06-16T05:32:36.770Z,40.10
2023-06-16T05:35:04.683Z,40.07
2023-06-16T05:37:33.317Z,40.12
2023-06-16T05:40:02.641Z,39.89
2023-06-16T05:42:32.577Z,39.60
2023-06-16T05:45:00.763Z,39.28
2023-06-16T05:47:34.519Z,38.98
2023-06-16T05:50:04.187Z,38.59
2023-06-16T05:52:33.947Z,38.18
2023-06-16T05:55:01.592Z,38.03
2023-06-16T05:57:39.306Z,37.86
2023-06-16T06:00:08.224Z,37.58
2023-06-16T06:02:41.934Z,38.01
2023-06-16T06:05:23.340Z,37.79
2023-06-16T06:07:51.065Z,37.95
2023-06-16T06:10:18.678Z,38.09
2023-06-16T06:12:47.792Z,37.66
2023-06-16T06:15:16.707Z,37.56
2023-06-16T06:17:45.374Z,37.29
2023-06-16T06:20:15.537Z,37.00
2023-06-16T06:22:46.498Z,36.77
2023-06-16T06:25:15.745Z,36.88
2023-06-16T06:27:43.248Z,36.79
2023-06-16T06:30:11.513Z,36.60
2023-06-16T06:32:40.212Z,36.62
2023-06-16T06:35:09.609Z,36.36
2023-06-16T06:37:37.482Z,36.13
2023-06-16T06:40:08.191Z,36.40
2023-06-16T06:42:36.884Z,35.91
2023-06-16T06:45:12.907Z,34.65
2023-06-16T06:47:41.303Z,34.54
2023-06-16T06:50:11.589Z,33.75
2023-06-16T06:52:39.093Z,32.91
2023-06-16T06:55:09.561Z,32.36
2023-06-16T06:57:37.029Z,32.14
2023-06-16T07:00:05.289Z,31.49
2023-06-16T07:02:34.601Z,31.26
2023-06-16T07:05:02.362Z,30.56
2023-06-16T07:07:32.355Z,30.24
2023-06-16T07:09:59.761Z,29.96
2023-06-16T07:12:28.602Z,29.87
2023-06-16T07:14:56.421Z,29.72
2023-06-16T07:17:24.015Z,29.23
2023-06-16T07:19:51.429Z,28.95
2023-06-16T07:22:21.324Z,28.89
2023-06-16T07:24:48.896Z,29.12
2023-06-16T07:27:16.389Z,28.89
2023-06-16T07:29:48.050Z,28.63
2023-06-16T07:32:15.799Z,28.82
2023-06-16T07:34:43.132Z,28.82
2023-06-16T07:37:11.368Z,29.17
2023-06-16T07:39:39.014Z,29.72
2023-06-16T07:42:07.551Z,29.11
2023-06-16T07:44:34.992Z,30.18
2023-06-16T07:47:03.840Z,30.16
2023-06-16T07:49:31.771Z,30.00
2023-06-16T07:51:59.296Z,29.34
2023-06-16T07:54:26.952Z,29.74
2023-06-16T07:56:55.056Z,29.76
2023-06-16T07:59:22.472Z,29.43
2023-06-16T08:01:49.958Z,29.59
2023-06-16T08:04:19.328Z,29.44
2023-06-16T08:06:46.863Z,29.38
2023-06-16T08:09:14.783Z,28.92
2023-06-16T08:11:42.299Z,28.78
2023-06-16T08:14:09.799Z,28.94
2023-06-16T08:16:37.393Z,28.69
2023-06-16T08:19:04.995Z,27.67
2023-06-16T08:21:33.999Z,27.64
2023-06-16T08:24:01.592Z,27.45
2023-06-16T08:26:29.946Z,27.50
2023-06-16T08:28:57.473Z,27.27
2023-06-16T08:31:24.889Z,27.70
2023-06-16T08:33:52.314Z,27.57
2023-06-16T08:36:21.462Z,27.39
2023-06-16T08:38:50.282Z,26.66
2023-06-16T08:41:19.495Z,26.98
2023-06-16T08:43:51.265Z,27.21
2023-06-16T08:46:18.898Z,27.34
2023-06-16T08:48:46.657Z,27.76
2023-06-16T08:51:15.519Z,27.07
2023-06-16T08:53:47.565Z,27.05
2023-06-16T08:56:19.167Z,27.00
2023-06-16T08:58:48.537Z,26.62
2023-06-16T09:01:16.288Z,26.92
2023-06-16T09:03:49.035Z,26.82
2023-06-16T09:06:16.778Z,27.28
2023-06-16T09:08:44.109Z,26.78
2023-06-16T09:11:11.559Z,26.89
2023-06-16T09:13:43.880Z,26.56
2023-06-16T09:16:16.702Z,26.93
2023-06-16T09:18:46.221Z,26.86
2023-06-16T09:21:14.171Z,26.58
2023-06-16T09:23:43.922Z,26.93
2023-06-16T09:26:12.777Z,26.28
2023-06-16T09:28:40.659Z,26.35
2023-06-16T09:31:13.554Z,26.16
2023-06-16T09:33:41.705Z,26.65
2023-06-16T09:36:10.471Z,26.75
2023-06-16T09:38:38.922Z,27.22
2023-06-16T09:41:10.339Z,27.41
2023-06-16T09:43:39.277Z,27.54
2023-06-16T09:46:12.547Z,27.30
2023-06-16T09:48:47.515Z,27.91
2023-06-16T09:51:18.408Z,27.99
2023-06-16T09:53:47.468Z,28.36
2023-06-16T09:56:16.910Z,28.56
2023-06-16T09:58:45.781Z,29.50
2023-06-16T10:01:15.883Z,29.59
2023-06-16T10:03:45.438Z,29.69
2023-06-16T10:06:19.285Z,29.30
2023-06-16T10:08:48.605Z,29.28
2023-06-16T10:11:17.539Z,29.92
2023-06-16T10:13:52.109Z,29.25
2023-06-16T10:16:24.357Z,29.08
2023-06-16T10:18:55.180Z,29.69
2023-06-16T10:21:24.263Z,29.91
2023-06-16T10:23:53.149Z,29.89
2023-06-16T10:26:21.000Z,29.40
2023-06-16T10:28:48.902Z,28.60
2023-06-16T10:31:17.664Z,28.37
2023-06-16T10:33:56.523Z,27.93
2023-06-16T10:36:25.465Z,28.04
2023-06-16T10:38:59.263Z,28.58
2023-06-16T10:41:30.780Z,28.22
2023-06-16T10:44:25.283Z,27.83
2023-06-16T10:47:28.357Z,27.54
2023-06-16T10:49:59.093Z,27.27
2023-06-16T10:52:50.607Z,27.04
2023-06-16T10:55:26.573Z,27.29
2023-06-16T10:58:30.171Z,28.00
2023-06-16T11:01:00.342Z,28.24
2023-06-16T11:03:35.990Z,27.64
2023-06-16T11:06:05.568Z,28.11
2023-06-16T11:08:49.806Z,28.34
2023-06-16T11:11:17.481Z,27.83
2023-06-16T11:13:47.967Z,27.18
2023-06-16T11:16:15.491Z,26.70
2023-06-16T11:18:44.011Z,25.92
2023-06-16T11:21:13.647Z,26.12
2023-06-16T11:23:45.283Z,26.76
2023-06-16T11:26:16.831Z,26.88
2023-06-16T11:28:44.976Z,27.42
2023-06-16T11:31:14.116Z,27.24
2023-06-16T11:33:42.565Z,27.36
2023-06-16T11:36:19.430Z,27.93
2023-06-16T11:38:51.057Z,28.47
2023-06-16T11:41:20.774Z,28.26
2023-06-16T11:43:49.230Z,28.22
2023-06-16T11:46:18.095Z,28.73
2023-06-16T11:48:46.120Z,28.99
2023-06-16T11:51:15.204Z,28.42
2023-06-16T11:53:45.157Z,28.38
2023-06-16T11:56:16.842Z,29.14
2023-06-16T11:58:46.553Z,28.92
2023-06-16T12:01:15.955Z,28.56
2023-06-16T12:03:59.964Z,27.70
2023-06-16T12:06:31.622Z,27.26
2023-06-16T12:09:02.720Z,26.73
2023-06-16T12:11:30.439Z,26.89
2023-06-16T12:13:58.841Z,26.24
2023-06-16T12:16:28.137Z,25.93
2023-06-16T12:18:58.360Z,25.64
2023-06-16T12:21:28.046Z,25.80
2023-06-16T12:23:58.078Z,25.98
2023-06-16T12:26:32.165Z,26.19
2023-06-16T12:29:01.959Z,26.02
2023-06-16T12:31:30.183Z,26.19
2023-06-16T12:33:58.757Z,26.01
2023-06-16T12:36:26.723Z,25.48
2023-06-16T12:38:59.124Z,25.58
2023-06-16T12:41:29.260Z,25.09
2023-06-16T12:43:58.230Z,24.65
2023-06-16T12:46:25.948Z,24.93
2023-06-16T12:48:53.875Z,24.57
2023-06-16T12:51:22.905Z,23.90
2023-06-16T12:53:50.224Z,24.29
2023-06-16T12:56:17.686Z,23.71
2023-06-16T12:58:45.905Z,23.82
2023-06-16T13:01:15.004Z,23.38
2023-06-16T13:03:43.402Z,23.22
2023-06-16T13:06:12.716Z,23.10
2023-06-16T13:08:42.622Z,23.69
2023-06-16T13:11:10.297Z,22.93
2023-06-16T13:13:38.441Z,23.50
2023-06-16T13:16:06.420Z,23.67
2023-06-16T13:18:35.235Z,24.03
2023-06-16T13:21:02.699Z,23.49
2023-06-16T13:23:30.495Z,23.60
2023-06-16T13:25:57.915Z,24.34
2023-06-16T13:28:25.541Z,24.73
2023-06-16T13:30:52.977Z,25.28
2023-06-16T13:33:20.512Z,25.70
2023-06-16T13:35:49.547Z,25.83
2023-06-16T13:38:16.990Z,25.92
2023-06-16T13:40:44.825Z,25.97
2023-06-16T13:43:12.372Z,25.50
2023-06-16T13:45:39.828Z,24.91
2023-06-16T13:48:07.623Z,24.75
2023-06-16T13:50:35.300Z,24.45
2023-06-16T13:53:04.257Z,23.93
2023-06-16T13:55:31.657Z,24.19
2023-06-16T13:57:59.275Z,23.62
2023-06-16T14:00:26.564Z,23.71
2023-06-16T14:02:55.194Z,24.20
2023-06-16T14:05:22.928Z,24.17
2023-06-16T14:07:50.474Z,24.77
2023-06-16T14:10:19.952Z,25.31
2023-06-16T14:12:47.531Z,25.61
2023-06-16T14:15:15.237Z,25.93
2023-06-16T14:17:43.115Z,26.41
2023-06-16T14:20:12.189Z,26.45
2023-06-16T14:22:40.066Z,27.18
2023-06-16T14:25:09.463Z,27.09
2023-06-16T14:27:38.356Z,27.34
2023-06-16T14:30:10.582Z,27.71
2023-06-16T14:32:39.234Z,27.68
2023-06-16T14:35:07.447Z,27.41
2023-06-16T14:37:36.757Z,27.19
2023-06-16T14:40:05.714Z,27.17
2023-06-16T14:42:38.344Z,26.81
2023-06-16T14:45:09.652Z,26.88
2023-06-16T14:47:37.952Z,26.89
2023-06-16T14:50:06.517Z,27.00
2023-06-16T14:52:34.431Z,27.00
2023-06-16T14:55:01.836Z,27.31
2023-06-16T14:57:32.936Z,27.37
2023-06-16T15:00:01.793Z,27.72
2023-06-16T15:02:32.410Z,27.83
2023-06-16T15:05:00.034Z,28.29
2023-06-16T15:07:27.383Z,28.16
2023-06-16T15:09:54.855Z,28.44
2023-06-16T15:12:22.341Z,28.42
2023-06-16T15:14:49.722Z,29.25
2023-06-16T15:17:18.717Z,28.75
2023-06-16T15:19:46.331Z,28.98
2023-06-16T15:22:13.667Z,29.68
2023-06-16T15:24:41.098Z,29.49
2023-06-16T15:27:08.645Z,29.65
2023-06-16T15:29:36.413Z,30.11
2023-06-16T15:32:03.890Z,29.70
2023-06-16T15:34:32.788Z,29.54
2023-06-16T15:37:03.952Z,30.10
2023-06-16T15:39:31.177Z,29.86
2023-06-16T15:41:58.425Z,29.46
2023-06-16T15:44:25.927Z,30.00
2023-06-16T15:46:53.414Z,29.85
2023-06-16T15:49:21.931Z,30.32
2023-06-16T15:51:52.004Z,30.70
2023-06-16T15:54:19.312Z,30.57
2023-06-16T15:56:46.613Z,30.64
2023-06-16T15:59:14.137Z,30.10
2023-06-16T16:01:43.476Z,30.23
2023-06-16T16:04:11.291Z,30.31
2023-06-16T16:06:38.765Z,30.88
2023-06-16T16:09:10.247Z,30.29
2023-06-16T16:11:41.060Z,30.30
2023-06-16T16:14:09.073Z,30.80
2023-06-16T16:16:37.483Z,30.71
2023-06-16T16:19:04.929Z,31.04
2023-06-16T16:21:32.998Z,30.95
2023-06-16T16:24:00.661Z,31.32
2023-06-16T16:26:29.407Z,31.30
2023-06-16T16:28:56.650Z,31.47
2023-06-16T16:31:24.187Z,31.39
2023-06-16T16:33:51.959Z,31.75
2023-06-16T16:36:19.919Z,31.68
2023-06-16T16:38:47.451Z,31.66
2023-06-16T16:41:14.905Z,32.19
2023-06-16T16:43:43.911Z,32.04
2023-06-16T16:46:11.455Z,32.12
2023-06-16T16:48:38.749Z,32.99
2023-06-16T16:51:06.708Z,32.86
2023-06-16T16:53:34.259Z,33.10
2023-06-16T16:56:01.622Z,32.92
2023-06-16T16:58:29.215Z,33.45
2023-06-16T17:00:58.162Z,33.67
2023-06-16T17:03:26.098Z,33.35
2023-06-16T17:05:53.613Z,33.65
2023-06-16T17:08:20.873Z,33.07
2023-06-16T17:10:48.451Z,33.50
2023-06-16T17:13:15.855Z,33.53
2023-06-16T17:15:43.333Z,33.61
2023-06-16T17:18:12.043Z,33.55
2023-06-16T17:20:39.532Z,33.76
2023-06-16T17:23:07.575Z,33.68
2023-06-16T17:25:35.892Z,33.57
2023-06-16T17:28:03.586Z,33.96
2023-06-16T17:30:32.495Z,33.74
2023-06-16T17:33:00.884Z,33.81
2023-06-16T17:35:31.589Z,33.87
2023-06-16T17:38:00.327Z,34.12
2023-06-16T17:40:30.531Z,34.08
2023-06-16T17:42:58.060Z,34.33
2023-06-16T17:45:25.426Z,34.57
2023-06-16T17:47:52.824Z,34.68
2023-06-16T17:50:20.789Z,34.80
2023-06-16T17:52:49.689Z,34.91
2023-06-16T17:55:17.326Z,34.99
2023-06-16T17:57:44.751Z,35.21
2023-06-16T18:00:17.108Z,35.47
2023-06-16T18:02:45.026Z,35.86
2023-06-16T18:05:12.939Z,36.42
2023-06-16T18:07:41.024Z,36.69
2023-06-16T18:10:11.602Z,37.09
2023-06-16T18:12:39.245Z,37.55
2023-06-16T18:15:08.150Z,37.71
2023-06-16T18:17:36.106Z,38.15
2023-06-16T18:20:04.884Z,38.27
2023-06-16T18:22:37.523Z,38.02
2023-06-16T18:25:06.031Z,38.31
2023-06-16T18:27:36.464Z,38.30
2023-06-16T18:30:06.279Z,38.66
2023-06-16T18:32:37.472Z,38.53
2023-06-16T18:35:06.571Z,38.13
2023-06-16T18:37:41.874Z,38.81
2023-06-16T18:40:10.691Z,39.01
2023-06-16T18:42:39.622Z,38.86
2023-06-16T18:45:07.990Z,39.12
2023-06-16T18:47:37.162Z,39.47
2023-06-16T18:50:05.616Z,39.28
2023-06-16T18:52:33.401Z,39.43
2023-06-16T18:55:01.200Z,39.76
2023-06-16T18:57:34.061Z,40.10
2023-06-16T19:00:05.008Z,40.14
2023-06-16T19:02:35.950Z,40.63
2023-06-16T19:05:05.780Z,40.32
2023-06-16T19:07:33.894Z,40.73
2023-06-16T19:10:01.436Z,41.07
2023-06-16T19:12:29.880Z,41.29
2023-06-16T19:14:57.295Z,41.82
2023-06-16T19:17:26.445Z,41.50
2023-06-16T19:19:54.167Z,41.57
2023-06-16T19:22:21.777Z,41.55
2023-06-16T19:24:49.436Z,41.95
2023-06-16T19:27:16.832Z,42.15
2023-06-16T19:29:44.288Z,42.45
2023-06-16T19:32:11.777Z,42.44
2023-06-16T19:34:41.929Z,42.54
2023-06-16T19:37:09.378Z,42.41
2023-06-16T19:39:36.975Z,42.44
2023-06-16T19:42:05.177Z,42.69
2023-06-16T19:44:32.622Z,42.19
2023-06-16T19:47:00.122Z,42.57
2023-06-16T19:49:27.619Z,42.69
2023-06-16T19:51:56.587Z,42.53
2023-06-16T19:54:23.994Z,42.71
2023-06-16T19:56:53.342Z,42.87
2023-06-16T19:59:20.869Z,42.56
2023-06-16T20:01:48.290Z,42.69
2023-06-16T20:04:16.034Z,42.67
2023-06-16T20:06:43.477Z,43.10
2023-06-16T20:09:12.361Z,42.70
2023-06-16T20:11:39.861Z,43.12
2023-06-16T20:14:07.116Z,43.22
2023-06-16T20:16:34.665Z,43.27
2023-06-16T20:19:04.387Z,43.50
2023-06-16T20:21:31.761Z,43.56
2023-06-16T20:23:59.074Z,43.56
2023-06-16T20:26:27.975Z,43.70
2023-06-16T20:28:55.704Z,43.87
2023-06-16T20:31:23.065Z,43.46
2023-06-16T20:33:50.611Z,43.90
2023-06-16T20:36:18.112Z,43.53
2023-06-16T20:38:45.390Z,43.90
2023-06-16T20:41:13.671Z,43.59
2023-06-16T20:43:43.605Z,43.77
2023-06-16T20:46:10.994Z,44.14
2023-06-16T20:48:38.304Z,43.76
2023-06-16T20:51:05.677Z,44.12
2023-06-16T20:53:35.585Z,43.91
2023-06-16T20:56:03.404Z,44.43
2023-06-16T20:58:36.777Z,44.33
2023-06-16T21:01:06.311Z,44.47
2023-06-16T21:03:33.948Z,44.47
2023-06-16T21:06:02.102Z,44.73
2023-06-16T21:08:36.106Z,44.71
2023-06-16T21:11:03.426Z,44.67
2023-06-16T21:13:31.839Z,44.46
2023-06-16T21:16:02.502Z,44.62
2023-06-16T21:18:32.729Z,45.01
2023-06-16T21:21:00.265Z,44.83
2023-06-16T21:23:28.083Z,44.97
2023-06-16T21:25:55.689Z,45.25
2023-06-16T21:28:23.118Z,45.23
2023-06-16T21:30:50.527Z,45.34
2023-06-16T21:33:17.981Z,45.64
2023-06-16T21:35:46.848Z,45.62
2023-06-16T21:38:21.814Z,46.04
2023-06-16T21:40:49.173Z,46.44
2023-06-16T21:43:16.711Z,46.45
2023-06-16T21:45:44.056Z,47.11
2023-06-16T21:48:11.612Z,47.31
2023-06-16T21:50:39.067Z,47.31
2023-06-16T21:53:07.828Z,47.45
2023-06-16T21:55:35.631Z,47.22
2023-06-16T21:58:03.007Z,47.49
2023-06-16T22:00:30.510Z,47.41
2023-06-16T22:02:58.072Z,47.96
2023-06-16T22:05:25.449Z,48.26
2023-06-16T22:07:54.719Z,48.22
2023-06-16T22:10:23.568Z,48.40
2023-06-16T22:12:51.348Z,48.66
2023-06-16T22:15:18.758Z,48.59
2023-06-16T22:17:46.320Z,48.55
2023-06-16T22:20:14.545Z,48.84
2023-06-16T22:22:42.048Z,48.69
2023-06-16T22:25:10.599Z,49.44
2023-06-16T22:27:39.576Z,49.31
2023-06-16T22:30:09.342Z,49.34
2023-06-16T22:32:37.509Z,49.24
2023-06-16T22:35:06.101Z,49.27
2023-06-16T22:37:33.815Z,49.61
2023-06-16T22:40:01.510Z,49.54
2023-06-16T22:42:29.126Z,49.77
2023-06-16T22:44:57.922Z,50.21
2023-06-16T22:47:26.934Z,50.97
2023-06-16T22:49:54.903Z,51.30
2023-06-16T22:52:22.252Z,51.93
2023-06-16T22:54:51.408Z,52.07
2023-06-16T22:57:19.589Z,52.33
2023-06-16T22:59:47.051Z,52.52
2023-06-16T23:02:16.046Z,52.59
2023-06-16T23:04:43.327Z,52.70
2023-06-16T23:07:10.850Z,53.23
2023-06-16T23:09:38.222Z,52.74
2023-06-16T23:12:06.638Z,52.91
2023-06-16T23:14:34.245Z,53.66
2023-06-16T23:17:01.850Z,53.46
2023-06-16T23:19:31.531Z,54.08
2023-06-16T23:21:59.577Z,54.08
2023-06-16T23:24:27.226Z,54.47
2023-06-16T23:26:56.074Z,54.40
2023-06-16T23:29:23.467Z,54.58
2023-06-16T23:31:50.937Z,54.77
2023-06-16T23:34:18.384Z,54.78
2023-06-16T23:36:47.554Z,54.62
2023-06-16T23:39:15.260Z,54.55
2023-06-16T23:41:42.562Z,54.71
2023-06-16T23:44:10.088Z,54.80
2023-06-16T23:46:37.419Z,55.00
2023-06-16T23:49:04.726Z,55.09
2023-06-16T23:51:32.069Z,55.44
2023-06-16T23:54:01.159Z,55.09
2023-06-16T23:56:29.693Z,55.37
2023-06-16T23:58:57.276Z,55.23
